Time;durP1;ratioP1;P1;durP2;ratioP2;P2;SDS_P1;SDS_P2;PMS_P1;PMS_P2;Temp;Humidity;BMP_temperature;BMP_pressure;BME280_temperature;BME280_humidity;BME280_pressure;Samples;Min_cycle;Max_cycle;Signal;HPM_P1;HPM_P2
2022/08/17 00:01:31;;;;;;;8.82;8.63;;;19.30;99.90;;;;;;5028312;28;20235;-84
2022/08/17 00:03:59;;;;;;;8.60;8.40;;;19.20;99.90;;;;;;5027694;28;20304;-83
2022/08/17 00:06:30;;;;;;;8.80;8.60;;;19.10;99.90;;;;;;5026740;28;20252;-84
2022/08/17 00:09:01;;;;;;;8.60;8.40;;;19.10;99.90;;;;;;5027892;28;20252;-84
2022/08/17 00:11:38;;;;;;;8.90;8.70;;;19.00;99.90;;;;;;5027962;28;20247;-84
2022/08/17 00:14:09;;;;;;;8.68;8.48;;;19.00;99.90;;;;;;5027330;28;20299;-83
2022/08/17 00:16:47;;;;;;;8.88;8.68;;;18.90;99.90;;;;;;5027112;28;20232;-83
2022/08/17 00:19:26;;;;;;;8.95;8.75;;;18.90;99.90;;;;;;5028128;28;20228;-84
2022/08/17 00:22:05;;;;;;;8.85;8.65;;;18.80;99.90;;;;;;5028688;28;20263;-83
2022/08/17 00:24:32;;;;;;;8.80;8.60;;;18.70;99.90;;;;;;5028130;28;20236;-83
2022/08/17 00:27:04;;;;;;;8.90;8.70;;;18.60;99.90;;;;;;5028002;28;20229;-83
2022/08/17 00:29:32;;;;;;;8.98;8.77;;;18.50;99.90;;;;;;5027690;28;20224;-84
2022/08/17 00:32:02;;;;;;;9.23;8.93;;;18.50;99.90;;;;;;5028223;28;20300;-83
2022/08/17 00:34:29;;;;;;;9.38;9.07;;;18.50;99.90;;;;;;5027435;28;20255;-83
2022/08/17 00:36:58;;;;;;;9.20;8.90;;;18.50;99.90;;;;;;5028692;28;20258;-83
2022/08/17 00:39:28;;;;;;;9.65;9.35;;;18.40;99.90;;;;;;5029487;28;20236;-84
2022/08/17 00:41:57;;;;;;;9.45;9.15;;;18.40;99.90;;;;;;5028713;28;20287;-83
2022/08/17 00:44:36;;;;;;;9.10;8.82;;;18.40;99.90;;;;;;5029092;28;20251;-84
2022/08/17 00:47:05;;;;;;;8.77;8.57;;;18.40;99.90;;;;;;5029171;28;20228;-84
2022/08/17 00:49:35;;;;;;;8.95;8.75;;;18.30;99.90;;;;;;5029155;28;20239;-84
2022/08/17 00:52:15;;;;;;;9.30;9.00;;;18.30;99.90;;;;;;5031341;28;20256;-83
2022/08/17 00:54:45;;;;;;;9.00;8.80;;;18.30;99.90;;;;;;5031104;28;20232;-84
2022/08/17 00:57:20;;;;;;;8.85;8.65;;;18.30;99.90;;;;;;5031320;28;20242;-83
2022/08/17 01:00:00;;;;;;;8.98;8.77;;;18.20;99.90;;;;;;5029662;28;20220;-84
2022/08/17 01:02:30;;;;;;;9.20;8.90;;;18.20;99.90;;;;;;5029522;28;20236;-84
2022/08/17 01:04:57;;;;;;;9.10;8.85;;;18.20;99.90;;;;;;5028643;28;20244;-83
2022/08/17 01:07:27;;;;;;;9.27;8.98;;;18.10;99.90;;;;;;5027634;28;20271;-84
2022/08/17 01:09:57;;;;;;;8.80;8.60;;;18.10;99.90;;;;;;5027523;28;20239;-83
2022/08/17 01:12:27;;;;;;;9.05;8.85;;;18.10;99.90;;;;;;5027433;28;20330;-84
2022/08/17 01:14:58;;;;;;;8.90;8.70;;;18.00;99.90;;;;;;5026403;28;20268;-84
2022/08/17 01:17:26;;;;;;;8.90;8.70;;;18.00;99.90;;;;;;5027121;28;20295;-83
2022/08/17 01:19:55;;;;;;;8.90;8.70;;;18.00;99.90;;;;;;5027083;28;20212;-84
2022/08/17 01:22:27;;;;;;;9.02;8.77;;;18.00;99.90;;;;;;5027148;28;21044;-84
2022/08/17 01:25:02;;;;;;;8.88;8.68;;;18.00;99.90;;;;;;5025251;28;20232;-83
2022/08/17 01:27:31;;;;;;;9.25;8.95;;;17.90;99.90;;;;;;5026554;28;20242;-83
2022/08/17 01:30:09;;;;;;;8.90;8.70;;;17.90;99.90;;;;;;5026622;28;20241;-84
2022/08/17 01:32:39;;;;;;;9.00;8.80;;;17.80;99.90;;;;;;5027148;28;20242;-84
2022/08/17 01:35:08;;;;;;;8.38;8.18;;;17.80;99.90;;;;;;5026644;28;20237;-84
2022/08/17 01:37:46;;;;;;;8.20;8.00;;;17.70;99.90;;;;;;5026948;28;20232;-83
2022/08/17 01:40:25;;;;;;;8.40;8.20;;;17.70;99.90;;;;;;5027317;28;20239;-83
2022/08/17 01:42:57;;;;;;;8.50;8.30;;;17.70;99.90;;;;;;5027139;28;20291;-83
2022/08/17 01:45:36;;;;;;;9.00;8.80;;;17.60;99.90;;;;;;5025589;28;20235;-84
2022/08/17 01:48:05;;;;;;;9.00;8.80;;;17.60;99.90;;;;;;5025940;28;20240;-83
2022/08/17 01:50:41;;;;;;;9.20;8.90;;;17.60;99.90;;;;;;5026983;28;20286;-84
2022/08/17 01:53:19;;;;;;;8.98;8.77;;;17.60;99.90;;;;;;5026147;28;20235;-83
2022/08/17 01:55:59;;;;;;;8.38;8.18;;;17.60;99.90;;;;;;5026027;28;20224;-84
2022/08/17 01:58:27;;;;;;;8.50;8.30;;;17.50;99.90;;;;;;5026516;28;20263;-83
2022/08/17 02:00:55;;;;;;;8.48;8.27;;;17.50;99.90;;;;;;5025806;28;20327;-83
2022/08/17 02:03:25;;;;;;;8.80;8.60;;;17.50;99.90;;;;;;5026269;28;20255;-83
2022/08/17 02:05:58;;;;;;;8.55;8.35;;;17.40;99.90;;;;;;5025570;28;20239;-83
2022/08/17 02:08:31;;;;;;;9.00;8.80;;;17.40;99.90;;;;;;5026676;28;20255;-84
2022/08/17 02:10:58;;;;;;;9.18;8.88;;;17.30;99.90;;;;;;5026954;28;20232;-83
2022/08/17 02:13:36;;;;;;;9.25;8.95;;;17.30;99.90;;;;;;5027025;28;20331;-83
2022/08/17 02:16:04;;;;;;;8.68;8.48;;;17.20;99.90;;;;;;5026119;28;20247;-84
2022/08/17 02:18:32;;;;;;;8.93;8.73;;;17.20;99.90;;;;;;5025097;28;20266;-83
2022/08/17 02:21:02;;;;;;;8.80;8.60;;;17.20;99.90;;;;;;5025990;28;20240;-84
2022/08/17 02:23:40;;;;;;;8.48;8.27;;;17.10;99.90;;;;;;5025055;28;20298;-83
2022/08/17 02:26:10;;;;;;;8.60;8.40;;;17.10;99.90;;;;;;5024744;28;20228;-83
2022/08/17 02:28:40;;;;;;;8.70;8.50;;;17.10;99.90;;;;;;5025846;28;20290;-83
2022/08/17 02:31:10;;;;;;;8.90;8.70;;;17.10;99.90;;;;;;5032401;28;20216;-82
2022/08/17 02:33:38;;;;;;;8.77;8.57;;;17.10;99.90;;;;;;5038656;28;20228;-83
2022/08/17 02:36:08;;;;;;;8.70;8.50;;;17.10;99.90;;;;;;5037632;28;20236;-83
2022/08/17 02:38:46;;;;;;;8.40;8.20;;;17.10;99.90;;;;;;5033818;28;20240;-84
2022/08/17 02:41:15;;;;;;;8.60;8.40;;;17.10;99.90;;;;;;5034087;28;20223;-83
2022/08/17 02:43:44;;;;;;;8.70;8.50;;;17.00;99.90;;;;;;5032794;28;20260;-83
2022/08/17 02:46:13;;;;;;;8.70;8.50;;;17.00;99.90;;;;;;5030613;28;20244;-83
2022/08/17 02:48:43;;;;;;;8.77;8.57;;;17.00;99.90;;;;;;5029099;28;20228;-83
2022/08/17 02:51:12;;;;;;;8.95;8.75;;;16.90;99.90;;;;;;5029751;28;20316;-83
2022/08/17 02:53:51;;;;;;;8.60;8.40;;;16.90;99.90;;;;;;5028813;28;20247;-84
2022/08/17 02:56:20;;;;;;;8.88;8.68;;;16.90;99.90;;;;;;5029017;28;20224;-83
2022/08/17 02:58:50;;;;;;;9.20;8.93;;;16.80;99.90;;;;;;5029427;28;20276;-83
2022/08/17 03:01:19;;;;;;;9.23;8.93;;;16.70;99.90;;;;;;5030249;28;20240;-83
2022/08/17 03:03:48;;;;;;;8.95;8.75;;;16.70;99.90;;;;;;5029130;28;20259;-83
2022/08/17 03:06:18;;;;;;;8.90;8.70;;;16.70;99.90;;;;;;5029369;28;20266;-83
2022/08/17 03:11:34;;;;;;;8.85;8.65;;;16.50;99.90;;;;;;5029187;28;20208;-83
2022/08/17 03:14:04;;;;;;;8.90;8.70;;;16.50;99.90;;;;;;5028375;28;20240;-83
2022/08/17 03:16:33;;;;;;;8.90;8.70;;;16.50;99.90;;;;;;5030760;28;20236;-83
2022/08/17 03:19:02;;;;;;;8.80;8.60;;;16.50;99.90;;;;;;5032264;28;20228;-83
2022/08/17 03:21:32;;;;;;;8.85;8.65;;;16.50;99.90;;;;;;5032213;28;20524;-83
2022/08/17 03:24:10;;;;;;;8.60;8.40;;;16.40;99.90;;;;;;5032742;28;20244;-84
2022/08/17 03:26:40;;;;;;;8.70;8.50;;;16.40;99.90;;;;;;5031477;28;20236;-83
2022/08/17 03:29:09;;;;;;;8.30;8.10;;;16.40;99.90;;;;;;5030385;28;20240;-85
2022/08/17 03:31:39;;;;;;;8.60;8.40;;;16.30;99.90;;;;;;5028798;28;20313;-84
2022/08/17 03:34:08;;;;;;;8.40;8.20;;;16.30;99.90;;;;;;5029794;28;20228;-84
2022/08/17 03:36:38;;;;;;;8.45;8.25;;;16.30;99.90;;;;;;5027534;28;20268;-84
2022/08/17 03:39:16;;;;;;;8.40;8.20;;;16.40;99.90;;;;;;5028081;28;20236;-84
2022/08/17 03:41:45;;;;;;;8.65;8.45;;;16.40;99.90;;;;;;5028254;28;20235;-84
2022/08/17 03:44:14;;;;;;;8.10;7.90;;;16.40;99.90;;;;;;5027329;28;20240;-86
2022/08/17 03:57:44;;;;;;;9.70;9.40;;;16.30;99.90;;;;;;5030074;28;20213;-84
2022/08/17 04:00:14;;;;;;;9.80;9.50;;;16.30;99.90;;;;;;5029135;28;20236;-84
2022/08/17 04:02:43;;;;;;;9.95;9.65;;;16.20;99.90;;;;;;5028949;28;20224;-84
2022/08/17 04:05:13;;;;;;;10.05;9.75;;;16.20;99.90;;;;;;5029169;28;20350;-84
2022/08/17 04:07:43;;;;;;;10.10;9.80;;;16.10;99.90;;;;;;5029173;28;20552;-84
2022/08/17 04:13:00;;;;;;;10.27;9.98;;;16.00;99.90;;;;;;5031743;28;20228;-84
2022/08/17 04:15:29;;;;;;;10.05;9.75;;;16.00;99.90;;;;;;5029874;28;20236;-84
2022/08/17 04:17:58;;;;;;;10.30;10.00;;;16.00;99.90;;;;;;5029191;28;20243;-84
2022/08/17 04:20:28;;;;;;;10.30;10.00;;;15.90;99.90;;;;;;5028605;28;20292;-83
2022/08/17 04:23:08;;;;;;;10.25;9.95;;;15.90;99.90;;;;;;5027468;28;20228;-83
2022/08/17 04:25:47;;;;;;;10.00;9.70;;;15.90;99.90;;;;;;5027448;28;20251;-84
2022/08/17 04:28:15;;;;;;;10.20;9.90;;;15.90;99.90;;;;;;5028075;28;20247;-84
2022/08/17 04:30:44;;;;;;;10.30;10.00;;;15.90;99.90;;;;;;5030087;28;20235;-83
2022/08/17 04:33:14;;;;;;;9.82;9.52;;;15.90;99.90;;;;;;5029528;28;20232;-84
2022/08/17 04:35:44;;;;;;;9.90;9.60;;;15.90;99.90;;;;;;5026919;28;20235;-84
2022/08/17 04:38:21;;;;;;;10.07;9.77;;;15.90;99.90;;;;;;5027430;28;20243;-84
2022/08/17 04:46:11;;;;;;;10.10;9.80;;;15.90;99.90;;;;;;5016583;28;20271;-79
2022/08/17 04:48:43;;;;;;;10.18;9.88;;;15.90;99.90;;;;;;5018543;28;20238;-78
2022/08/17 04:51:14;;;;;;;10.05;9.75;;;16.00;99.90;;;;;;5020020;28;20227;-78
2022/08/17 04:53:49;;;;;;;9.95;9.65;;;16.00;99.90;;;;;;5019597;28;20227;-78
2022/08/17 04:56:22;;;;;;;10.10;9.80;;;16.10;99.90;;;;;;5003079;28;20241;-79
2022/08/17 04:58:52;;;;;;;9.90;9.60;;;16.10;99.90;;;;;;5003026;28;20324;-78
2022/08/17 05:01:23;;;;;;;9.90;9.60;;;16.20;99.90;;;;;;5001665;28;20236;-78
2022/08/17 05:03:51;;;;;;;10.20;9.90;;;16.30;99.90;;;;;;4999672;28;20229;-80
2022/08/17 05:06:19;;;;;;;10.10;9.80;;;16.30;99.90;;;;;;4999860;28;20300;-80
2022/08/17 05:08:48;;;;;;;10.20;9.90;;;16.30;99.90;;;;;;4999447;28;20335;-79
2022/08/17 05:11:20;;;;;;;10.50;10.20;;;16.30;99.90;;;;;;5000283;28;20307;-78
2022/08/17 05:13:48;;;;;;;10.25;9.95;;;16.40;99.90;;;;;;5000855;28;20285;-78
2022/08/17 05:16:17;;;;;;;10.20;9.90;;;16.50;99.90;;;;;;5001115;28;20244;-80
2022/08/17 05:18:46;;;;;;;10.15;9.85;;;16.60;99.90;;;;;;5001966;28;20268;-77
2022/08/17 05:21:16;;;;;;;10.27;9.98;;;16.70;99.90;;;;;;5001861;28;20233;-79
2022/08/17 05:23:45;;;;;;;10.32;10.02;;;16.70;99.90;;;;;;5001549;28;20236;-79
2022/08/17 05:26:16;;;;;;;10.15;9.85;;;16.80;99.90;;;;;;5003495;28;20323;-79
2022/08/17 05:28:46;;;;;;;10.10;9.80;;;16.90;99.90;;;;;;5006113;28;20307;-78
2022/08/17 05:31:14;;;;;;;10.25;9.95;;;17.10;99.90;;;;;;5004628;28;20232;-79
2022/08/17 05:33:43;;;;;;;10.27;9.98;;;17.20;99.90;;;;;;5004732;28;20229;-79
2022/08/17 05:36:13;;;;;;;10.27;9.98;;;17.30;99.90;;;;;;5006084;28;20236;-80
2022/08/17 05:38:42;;;;;;;10.70;10.40;;;17.40;99.90;;;;;;5005604;28;20340;-79
2022/08/17 05:41:10;;;;;;;10.57;10.27;;;17.50;99.90;;;;;;5004274;28;20328;-79
2022/08/17 05:43:41;;;;;;;10.40;10.10;;;17.60;99.90;;;;;;5003824;28;20235;-79
2022/08/17 05:46:19;;;;;;;10.57;10.27;;;17.70;99.90;;;;;;5004503;28;20252;-79
2022/08/17 05:48:49;;;;;;;11.00;10.70;;;17.80;99.90;;;;;;5003673;28;20292;-79
2022/08/17 05:51:44;;;;;;;10.43;10.13;;;18.00;99.90;;;;;;5004850;28;20235;-79
2022/08/17 05:54:31;;;;;;;10.50;10.20;;;18.10;99.90;;;;;;5004726;28;20284;-80
2022/08/17 05:57:37;;;;;;;10.70;10.40;;;18.30;99.90;;;;;;5005675;28;20264;-79
2022/08/17 06:00:14;;;;;;;10.70;10.40;;;18.50;99.90;;;;;;5005464;28;20248;-79
2022/08/17 06:03:02;;;;;;;10.35;10.05;;;18.70;99.90;;;;;;5004698;28;20256;-78
2022/08/17 06:05:50;;;;;;;10.60;10.30;;;18.90;99.90;;;;;;5003956;28;20229;-79
2022/08/17 06:08:29;;;;;;;10.65;10.35;;;19.00;99.90;;;;;;5002967;28;20255;-79
2022/08/17 06:11:09;;;;;;;10.90;10.60;;;19.20;99.90;;;;;;5004425;28;20327;-79
2022/08/17 06:13:53;;;;;;;10.80;10.50;;;19.30;99.90;;;;;;5006315;28;20229;-79
2022/08/17 06:16:26;;;;;;;10.70;10.40;;;19.40;99.90;;;;;;5006154;28;20224;-79
2022/08/17 06:19:02;;;;;;;10.70;10.40;;;19.50;99.90;;;;;;5007216;28;20256;-79
2022/08/17 06:21:40;;;;;;;10.88;10.57;;;19.60;99.90;;;;;;5007846;28;20315;-80
2022/08/17 06:24:24;;;;;;;10.90;10.60;;;19.70;99.90;;;;;;5006871;28;20284;-79
2022/08/17 06:26:56;;;;;;;10.82;10.52;;;19.80;99.90;;;;;;5006516;28;20225;-79
2022/08/17 06:29:37;;;;;;;11.18;10.88;;;20.00;99.90;;;;;;5006900;28;20819;-80
2022/08/17 06:32:06;;;;;;;11.07;10.77;;;20.00;99.90;;;;;;5006968;28;20271;-80
2022/08/17 06:34:44;;;;;;;11.43;11.02;;;20.10;99.90;;;;;;5006287;28;20244;-79
2022/08/17 06:37:40;;;;;;;11.25;10.95;;;20.20;99.90;;;;;;5007494;28;20217;-80
2022/08/17 06:40:33;;;;;;;11.50;11.10;;;20.40;99.90;;;;;;5008215;28;20319;-79
2022/08/17 06:43:14;;;;;;;11.27;10.98;;;20.60;99.90;;;;;;5007996;28;20275;-79
2022/08/17 06:45:48;;;;;;;10.95;10.65;;;20.90;99.90;;;;;;5007007;28;20744;-79
2022/08/17 06:48:28;;;;;;;11.50;11.10;;;21.00;99.90;;;;;;5006282;28;20225;-80
2022/08/17 06:51:04;;;;;;;11.23;10.93;;;21.10;99.90;;;;;;5006519;28;20304;-79
2022/08/17 06:53:41;;;;;;;11.45;11.05;;;21.20;99.90;;;;;;5007424;28;20264;-79
2022/08/17 06:56:12;;;;;;;11.48;11.07;;;21.40;99.90;;;;;;5007714;28;20243;-79
2022/08/17 06:58:43;;;;;;;11.70;11.30;;;21.50;99.90;;;;;;5006723;28;20289;-79
2022/08/17 07:01:16;;;;;;;11.20;10.90;;;21.60;99.90;;;;;;5014707;28;20235;-79
2022/08/17 07:03:53;;;;;;;11.25;10.95;;;21.70;99.90;;;;;;5016833;28;20233;-79
2022/08/17 07:06:28;;;;;;;11.45;11.15;;;21.90;99.90;;;;;;5016784;28;20228;-79
2022/08/17 07:09:02;;;;;;;11.70;11.30;;;22.00;99.90;;;;;;5016773;28;20279;-78
2022/08/17 07:11:38;;;;;;;11.65;11.25;;;22.00;99.90;;;;;;5019048;28;20260;-78
2022/08/17 07:14:32;;;;;;;11.57;11.18;;;22.20;99.90;;;;;;5018964;28;20246;-80
2022/08/17 07:17:10;;;;;;;11.18;10.88;;;22.50;99.90;;;;;;5018934;28;20260;-79
2022/08/17 07:19:41;;;;;;;11.27;10.98;;;22.70;99.90;;;;;;5017972;28;20255;-79
2022/08/17 07:22:26;;;;;;;11.30;11.00;;;22.70;99.90;;;;;;5018000;28;20232;-79
2022/08/17 07:24:57;;;;;;;11.23;10.93;;;22.90;99.90;;;;;;5016806;28;20236;-80
2022/08/17 07:27:29;;;;;;;11.13;10.82;;;23.00;99.90;;;;;;5017775;28;20233;-79
2022/08/17 07:30:04;;;;;;;11.07;10.77;;;23.20;99.90;;;;;;5017011;28;20248;-79
2022/08/17 07:32:36;;;;;;;11.10;10.80;;;23.30;99.90;;;;;;5015641;28;20243;-80
2022/08/17 07:35:16;;;;;;;11.60;11.20;;;23.40;99.90;;;;;;5014931;28;20236;-80
2022/08/17 07:37:51;;;;;;;11.35;11.05;;;23.60;99.90;;;;;;5015486;28;20272;-80
2022/08/17 07:40:30;;;;;;;11.25;10.95;;;23.80;99.90;;;;;;5014699;28;20280;-79
2022/08/17 07:43:25;;;;;;;11.43;11.13;;;23.90;99.90;;;;;;5012435;28;20319;-79
2022/08/17 07:49:16;;;;;;;11.20;10.90;;;24.20;99.90;;;;;;5011686;28;20216;-80
2022/08/17 07:51:58;;;;;;;11.55;11.23;;;24.30;99.90;;;;;;5011043;28;20228;-80
2022/08/17 07:54:34;;;;;;;11.10;10.80;;;24.50;99.90;;;;;;5009723;28;20255;-79
2022/08/17 07:57:30;;;;;;;11.23;10.93;;;24.60;99.90;;;;;;5009948;28;20236;-80
2022/08/17 08:00:18;;;;;;;11.20;10.90;;;24.70;99.90;;;;;;5008237;28;20220;-79
2022/08/17 08:03:02;;;;;;;10.77;10.48;;;24.80;99.90;;;;;;5008963;28;20227;-79
2022/08/17 08:05:35;;;;;;;10.70;10.40;;;24.90;99.90;;;;;;5007384;28;20256;-79
2022/08/17 08:08:21;;;;;;;11.10;10.80;;;25.00;99.90;;;;;;5006304;28;20240;-79
2022/08/17 08:11:07;;;;;;;11.00;10.70;;;25.10;99.90;;;;;;5006173;28;20332;-78
2022/08/17 08:13:43;;;;;;;11.25;10.95;;;25.30;99.90;;;;;;5006334;28;20217;-80
2022/08/17 08:16:25;;;;;;;11.50;11.20;;;25.30;99.90;;;;;;5007414;28;20237;-79
2022/08/17 08:18:56;;;;;;;11.35;11.05;;;25.50;99.90;;;;;;5006673;28;20252;-79
2022/08/17 08:21:45;;;;;;;11.10;10.80;;;25.70;99.90;;;;;;5006869;28;20288;-79
2022/08/17 08:24:46;;;;;;;11.50;11.20;;;25.90;99.90;;;;;;5006256;28;20284;-79
2022/08/17 08:27:33;;;;;;;11.45;11.15;;;26.10;99.90;;;;;;5005030;28;20242;-79
2022/08/17 08:30:13;;;;;;;11.70;11.30;;;26.30;99.90;;;;;;5002733;28;20348;-78
2022/08/17 08:33:24;;;;;;;11.48;11.18;;;26.50;99.90;;;;;;5001982;28;20239;-79
2022/08/17 08:36:02;;;;;;;11.30;11.00;;;26.60;99.90;;;;;;4999639;28;20276;-79
2022/08/17 08:38:41;;;;;;;11.25;10.95;;;26.80;99.90;;;;;;5002839;28;20236;-78
2022/08/17 08:41:27;;;;;;;11.20;10.90;;;26.90;99.90;;;;;;5005162;28;20228;-79
2022/08/17 08:44:16;;;;;;;10.90;10.60;;;27.00;99.90;;;;;;5004710;28;20257;-79
2022/08/17 08:46:53;;;;;;;11.13;10.82;;;27.20;99.90;;;;;;5005716;28;20221;-79
2022/08/17 08:49:58;;;;;;;11.48;11.10;;;27.30;99.90;;;;;;5002733;28;20252;-78
2022/08/17 08:52:44;;;;;;;11.57;11.20;;;27.60;99.90;;;;;;5002583;28;20296;-78
2022/08/17 08:55:34;;;;;;;11.82;11.43;;;27.90;99.90;;;;;;5004181;28;20271;-80
2022/08/17 08:58:07;;;;;;;12.02;11.63;;;28.10;99.90;;;;;;5005835;28;20244;-79
2022/08/17 09:00:52;;;;;;;12.00;11.60;;;28.40;99.90;;;;;;5004805;28;20224;-79
2022/08/17 09:03:54;;;;;;;11.95;11.55;;;28.70;99.90;;;;;;5007956;28;20237;-79
2022/08/17 09:06:39;;;;;;;11.60;11.20;;;28.90;99.90;;;;;;5006893;28;20230;-78
2022/08/17 09:09:26;;;;;;;11.80;11.40;;;29.20;99.90;;;;;;5003394;28;20255;-79
2022/08/17 09:12:03;;;;;;;11.80;11.40;;;29.40;99.90;;;;;;5001379;28;20263;-80
2022/08/17 09:14:44;;;;;;;11.88;11.48;;;29.60;99.90;;;;;;5001805;28;20237;-80
2022/08/17 09:17:20;;;;;;;11.88;11.48;;;29.80;99.90;;;;;;5001488;28;20232;-79
2022/08/17 09:19:55;;;;;;;11.85;11.45;;;30.10;99.90;;;;;;5003191;28;20275;-78
2022/08/17 09:22:30;;;;;;;11.80;11.40;;;30.30;99.90;;;;;;5001891;28;20228;-79
2022/08/17 09:25:07;;;;;;;12.13;11.73;;;30.50;99.90;;;;;;5002147;28;20318;-78
2022/08/17 09:27:47;;;;;;;12.10;11.70;;;30.70;99.90;;;;;;5003392;28;20236;-79
2022/08/17 09:30:15;;;;;;;11.95;11.55;;;31.00;99.90;;;;;;5003165;28;20296;-79
2022/08/17 09:32:53;;;;;;;12.10;11.70;;;31.10;99.90;;;;;;5003798;28;20241;-79
2022/08/17 09:35:24;;;;;;;12.25;11.85;;;31.20;99.90;;;;;;5001084;28;20300;-79
2022/08/17 09:38:02;;;;;;;12.10;11.70;;;31.50;99.90;;;;;;5002732;28;20227;-78
2022/08/17 09:40:40;;;;;;;11.90;11.50;;;31.70;99.90;;;;;;5003698;28;20248;-78
2022/08/17 09:43:29;;;;;;;12.07;11.68;;;31.70;99.90;;;;;;5004028;28;20236;-79
2022/08/17 09:46:02;;;;;;;12.00;11.60;;;31.70;99.90;;;;;;5002140;28;20260;-79
2022/08/17 09:48:39;;;;;;;11.80;11.40;;;31.80;99.90;;;;;;5003288;28;20217;-79
2022/08/17 09:51:13;;;;;;;11.85;11.45;;;31.80;99.90;;;;;;5004336;28;20335;-80
2022/08/17 09:53:41;;;;;;;12.18;11.77;;;32.00;99.90;;;;;;5003901;28;20256;-80
2022/08/17 09:56:37;;;;;;;12.00;11.60;;;32.10;99.90;;;;;;5003621;28;20344;-79
2022/08/17 09:59:33;;;;;;;12.07;11.68;;;32.20;99.90;;;;;;4999706;28;20319;-79
2022/08/17 10:02:26;;;;;;;11.90;11.50;;;32.70;99.90;;;;;;5004582;28;20227;-79
2022/08/17 10:05:07;;;;;;;11.80;11.40;;;32.90;99.90;;;;;;5004809;28;20236;-79
2022/08/17 10:07:42;;;;;;;11.88;11.48;;;33.40;99.90;;;;;;5004455;28;20237;-78
2022/08/17 10:10:18;;;;;;;11.68;11.27;;;33.60;99.90;;;;;;5004746;28;20246;-78
2022/08/17 10:12:56;;;;;;;11.90;11.50;;;33.70;99.90;;;;;;5004623;28;20220;-79
2022/08/17 10:15:51;;;;;;;11.90;11.50;;;33.80;99.90;;;;;;5004703;28;20236;-80
2022/08/17 10:18:37;;;;;;;11.70;11.30;;;33.60;99.90;;;;;;5006271;28;20247;-78
2022/08/17 10:27:00;;;;;;;12.00;11.60;;;34.30;99.90;;;;;;5006870;28;20224;-79
2022/08/17 10:29:34;;;;;;;12.00;11.60;;;34.20;99.90;;;;;;5008403;28;20280;-78
2022/08/17 10:32:08;;;;;;;12.00;11.60;;;34.20;99.90;;;;;;5010421;28;20225;-78
2022/08/17 10:35:24;;;;;;;12.10;11.70;;;33.70;99.90;;;;;;5012936;28;20229;-79
2022/08/17 10:38:32;;;;;;;12.25;11.85;;;34.20;99.90;;;;;;5005921;28;20232;-79
2022/08/17 10:41:14;;;;;;;12.02;11.63;;;34.80;99.90;;;;;;5014163;28;20225;-78
2022/08/17 10:43:59;;;;;;;11.63;11.23;;;35.20;99.90;;;;;;5014796;28;20245;-79
2022/08/17 10:46:41;;;;;;;11.63;11.23;;;35.70;99.90;;;;;;5006431;28;20236;-78
2022/08/17 10:49:28;;;;;;;11.77;11.38;;;35.90;99.90;;;;;;5007196;28;20256;-77
2022/08/17 10:51:58;;;;;;;11.60;11.20;;;36.00;99.90;;;;;;5007215;28;20263;-78
2022/08/17 10:54:49;;;;;;;11.80;11.40;;;35.80;99.90;;;;;;5005308;28;20260;-78
2022/08/17 10:57:40;;;;;;;11.40;11.10;;;35.50;99.90;;;;;;5004779;28;20721;-78
2022/08/17 11:01:11;;;;;;;11.43;11.13;;;34.90;99.90;;;;;;5004262;28;20317;-78
2022/08/17 11:03:52;;;;;;;11.80;11.40;;;34.80;99.90;;;;;;5001824;28;20242;-78
2022/08/17 11:06:33;;;;;;;11.82;11.43;;;34.40;99.90;;;;;;5000744;28;20256;-78
2022/08/17 11:09:25;;;;;;;11.80;11.40;;;34.30;99.90;;;;;;5001605;28;20232;-78
2022/08/17 11:12:14;;;;;;;12.00;11.60;;;34.10;99.90;;;;;;5000906;28;20244;-78
2022/08/17 11:15:01;;;;;;;12.00;11.60;;;34.20;99.90;;;;;;5000350;28;20271;-78
2022/08/17 11:17:52;;;;;;;12.02;11.63;;;34.40;99.90;;;;;;5000628;28;20240;-78
2022/08/17 11:20:59;;;;;;;11.98;11.57;;;35.00;99.90;;;;;;5001137;28;20285;-78
2022/08/17 11:24:04;;;;;;;11.80;11.40;;;35.50;99.90;;;;;;5000593;28;20232;-78
2022/08/17 11:26:35;;;;;;;11.68;11.30;;;36.00;99.90;;;;;;5000103;28;20263;-78
2022/08/17 11:29:17;;;;;;;11.55;11.25;;;36.10;99.90;;;;;;5000845;28;20331;-78
2022/08/17 11:31:58;;;;;;;11.65;11.25;;;36.00;99.90;;;;;;5000385;28;20237;-78
2022/08/17 11:34:28;;;;;;;11.82;11.43;;;36.20;99.60;;;;;;4999954;28;20266;-78
2022/08/17 11:37:31;;;;;;;11.70;11.30;;;36.60;99.90;;;;;;5000215;28;20252;-77
2022/08/17 11:40:40;;;;;;;11.73;11.32;;;36.40;99.30;;;;;;5000073;28;20233;-77
2022/08/17 11:43:43;;;;;;;11.25;10.95;;;36.20;99.90;;;;;;5000041;28;20240;-78
2022/08/17 11:51:32;;;;;;;11.43;11.13;;;36.20;99.10;;;;;;4999509;28;20236;-78
2022/08/17 11:52:16;;;;;;;11.27;10.98;;;35.30;99.10;;;;;;4999533;28;20236;-78
2022/08/17 11:54:46;;;;;;;11.50;11.20;;;35.20;99.10;;;;;;4998843;28;20232;-77
2022/08/17 11:58:05;;;;;;;11.18;10.88;;;35.60;99.60;;;;;;5000317;28;20243;-78
2022/08/17 12:00:58;;;;;;;11.35;11.05;;;35.90;98.10;;;;;;4999539;28;20263;-76
2022/08/17 12:03:55;;;;;;;11.55;11.25;;;36.00;99.90;;;;;;4989266;28;20252;-77
2022/08/17 12:06:41;;;;;;;11.88;11.48;;;36.50;98.30;;;;;;4998016;28;20272;-77
2022/08/17 12:09:16;;;;;;;11.90;11.50;;;36.70;96.80;;;;;;4998403;28;20233;-77
2022/08/17 12:11:52;;;;;;;12.10;11.70;;;37.30;96.90;;;;;;4999130;28;20709;-77
2022/08/17 12:14:25;;;;;;;12.10;11.70;;;37.40;95.70;;;;;;4998691;28;20254;-77
2022/08/17 12:17:14;;;;;;;11.85;11.45;;;37.60;97.00;;;;;;4999243;28;20740;-77
2022/08/17 12:19:43;;;;;;;11.68;11.27;;;37.80;94.00;;;;;;4997261;28;20246;-77
2022/08/17 12:22:19;;;;;;;11.80;11.40;;;37.40;94.40;;;;;;4999645;28;20263;-77
2022/08/17 12:24:58;;;;;;;12.00;11.60;;;36.70;95.70;;;;;;4998006;28;20304;-77
2022/08/17 12:27:32;;;;;;;11.90;11.50;;;36.40;96.30;;;;;;4999057;28;20288;-77
2022/08/17 12:30:00;;;;;;;11.73;11.32;;;35.70;96.00;;;;;;4998881;28;20260;-77
2022/08/17 12:32:34;;;;;;;11.90;11.50;;;35.30;96.50;;;;;;4999244;28;20240;-77
2022/08/17 12:35:06;;;;;;;11.75;11.35;;;35.40;96.60;;;;;;4998553;28;20348;-76
2022/08/17 12:37:37;;;;;;;11.73;11.32;;;35.50;96.20;;;;;;4999203;28;20233;-77
2022/08/17 12:40:16;;;;;;;11.70;11.30;;;35.70;95.10;;;;;;4998982;28;20243;-77
2022/08/17 12:42:56;;;;;;;11.20;10.90;;;35.60;94.80;;;;;;4999351;28;20319;-77
2022/08/17 12:45:28;;;;;;;11.30;11.00;;;35.80;94.80;;;;;;4998000;28;20255;-77
2022/08/17 12:48:07;;;;;;;11.10;10.80;;;35.90;94.90;;;;;;4996664;28;20319;-77
2022/08/17 12:50:38;;;;;;;11.25;10.95;;;35.60;94.60;;;;;;4998918;28;20246;-77
2022/08/17 12:53:11;;;;;;;11.20;10.90;;;35.70;94.50;;;;;;4998740;28;20327;-77
2022/08/17 12:55:40;;;;;;;11.15;10.85;;;35.80;94.10;;;;;;4997576;28;20335;-77
2022/08/17 12:58:13;;;;;;;11.10;10.80;;;35.50;95.00;;;;;;4998292;28;20717;-76
2022/08/17 13:00:49;;;;;;;10.98;10.68;;;35.40;95.20;;;;;;4998501;28;20232;-77
2022/08/17 13:03:20;;;;;;;11.40;11.10;;;35.40;95.40;;;;;;4998126;28;20243;-77
2022/08/17 13:06:00;;;;;;;11.30;11.00;;;35.20;95.20;;;;;;4997661;28;20225;-77
2022/08/17 13:08:34;;;;;;;11.43;11.13;;;35.00;95.50;;;;;;4998046;28;20233;-77
2022/08/17 13:11:08;;;;;;;11.20;10.90;;;34.90;96.50;;;;;;4998823;28;20236;-77
2022/08/17 13:13:38;;;;;;;11.15;10.85;;;34.70;97.80;;;;;;4999008;28;20229;-77
2022/08/17 13:16:15;;;;;;;11.30;11.00;;;34.70;96.50;;;;;;4998597;28;20738;-77
2022/08/17 13:18:46;;;;;;;11.40;11.10;;;34.30;96.00;;;;;;5001555;28;20248;-77
2022/08/17 13:21:26;;;;;;;11.23;10.93;;;34.10;96.70;;;;;;5003421;28;20292;-77
2022/08/17 13:23:58;;;;;;;11.10;10.80;;;34.00;97.00;;;;;;5003434;28;20292;-77
2022/08/17 13:26:32;;;;;;;11.40;11.10;;;33.80;96.90;;;;;;4999398;28;20232;-78
2022/08/17 13:29:00;;;;;;;11.10;10.80;;;33.80;96.80;;;;;;4998805;28;20237;-77
2022/08/17 13:31:38;;;;;;;11.20;10.90;;;33.80;96.90;;;;;;4998896;28;20298;-77
2022/08/17 13:34:19;;;;;;;10.98;10.68;;;33.30;97.40;;;;;;4998786;28;20236;-77
2022/08/17 13:36:48;;;;;;;10.80;10.50;;;33.10;97.70;;;;;;4998412;28;20241;-77
2022/08/17 13:39:20;;;;;;;10.80;10.50;;;32.90;97.70;;;;;;4998462;28;20256;-77
2022/08/17 13:41:50;;;;;;;10.90;10.60;;;32.80;97.90;;;;;;4998474;28;20331;-77
2022/08/17 13:44:36;;;;;;;11.30;11.00;;;32.30;98.50;;;;;;4997699;28;20237;-77
2022/08/17 13:47:16;;;;;;;11.50;11.20;;;32.30;98.40;;;;;;4998187;28;20236;-78
2022/08/17 13:49:44;;;;;;;11.05;10.75;;;32.30;98.90;;;;;;4998320;28;20225;-77
2022/08/17 13:52:36;;;;;;;11.40;11.10;;;32.00;99.30;;;;;;4997606;28;21075;-77
2022/08/17 13:55:09;;;;;;;11.45;11.15;;;31.90;99.30;;;;;;4997479;28;20241;-77
2022/08/17 13:57:37;;;;;;;11.48;11.18;;;31.90;99.60;;;;;;4997593;28;20328;-77